createdAt,value
2023-03-19T00:02:17.123Z,3.30
2023-03-19T00:05:21.070Z,3.20
2023-03-19T00:08:25.990Z,3.20
2023-03-19T00:11:29.241Z,3.10
2023-03-19T00:14:32.499Z,3.10
2023-03-19T00:17:35.818Z,3.10
2023-03-19T00:20:39.126Z,3.00
2023-03-19T00:23:43.762Z,3.00
2023-03-19T00:26:47.167Z,3.00
2023-03-19T00:29:50.567Z,3.00
2023-03-19T00:32:53.780Z,2.90
2023-03-19T00:35:57.059Z,2.90
2023-03-19T00:39:02.451Z,2.90
2023-03-19T00:42:06.196Z,3.00
2023-03-19T00:45:11.305Z,2.90
2023-03-19T00:48:14.549Z,2.90
2023-03-19T00:51:17.827Z,3.00
2023-03-19T00:54:22.415Z,3.00
2023-03-19T00:57:25.559Z,2.90
2023-03-19T01:00:28.891Z,3.00
2023-03-19T01:03:32.254Z,3.00
2023-03-19T01:06:35.386Z,3.00
2023-03-19T01:09:41.110Z,3.00
2023-03-19T01:12:44.391Z,3.00
2023-03-19T01:15:52.475Z,3.10
2023-03-19T01:18:56.134Z,3.10
2023-03-19T01:21:59.455Z,3.10
2023-03-19T01:25:05.773Z,3.10
2023-03-19T01:28:09.040Z,3.10
2023-03-19T01:31:15.078Z,3.10
2023-03-19T01:34:47.756Z,3.10
2023-03-19T01:37:53.373Z,3.00
2023-03-19T01:40:58.728Z,3.10
2023-03-19T01:44:02.014Z,3.00
2023-03-19T01:47:19.170Z,2.90
2023-03-19T01:50:43.750Z,2.80
2023-03-19T01:54:25.140Z,2.80
2023-03-19T01:57:36.617Z,2.70
2023-03-19T02:00:53.552Z,2.50
2023-03-19T02:03:57.549Z,2.50
2023-03-19T02:07:05.057Z,2.70
2023-03-19T02:10:12.491Z,2.30
2023-03-19T02:13:17.682Z,2.30
2023-03-19T02:16:21.376Z,2.20
2023-03-19T02:19:32.087Z,2.10
2023-03-19T02:22:37.823Z,2.00
2023-03-19T02:25:52.859Z,1.90
2023-03-19T02:28:57.094Z,1.90
2023-03-19T02:32:06.300Z,1.80
2023-03-19T02:35:10.564Z,1.70
2023-03-19T02:38:15.033Z,1.60
2023-03-19T02:41:20.663Z,1.60
2023-03-19T02:44:23.890Z,1.40
2023-03-19T02:47:28.917Z,1.30
2023-03-19T02:50:32.430Z,1.20
2023-03-19T02:53:36.145Z,1.20
2023-03-19T02:56:43.664Z,1.10
2023-03-19T02:59:46.948Z,1.10
2023-03-19T03:02:50.223Z,0.90
2023-03-19T03:05:53.349Z,0.90
2023-03-19T03:08:56.592Z,0.80
2023-03-19T03:12:02.444Z,0.80
2023-03-19T03:15:06.950Z,0.70
2023-03-19T03:18:10.215Z,0.70
2023-03-19T03:21:13.765Z,0.60
2023-03-19T03:24:16.985Z,0.60
2023-03-19T03:27:21.544Z,0.50
2023-03-19T03:30:25.128Z,0.50
2023-03-19T03:33:28.334Z,0.40
2023-03-19T03:36:32.494Z,0.40
2023-03-19T03:39:35.698Z,0.30
2023-03-19T03:42:40.433Z,0.20
2023-03-19T03:45:45.497Z,0.70
2023-03-19T03:48:49.294Z,0.30
2023-03-19T03:51:52.716Z,0.20
2023-03-19T03:54:56.505Z,0.30
2023-03-19T03:58:01.117Z,0.20
2023-03-19T04:01:04.349Z,0.20
2023-03-19T04:04:08.651Z,0.20
2023-03-19T04:07:12.189Z,0.20
2023-03-19T04:10:19.401Z,0.30
2023-03-19T04:13:25.358Z,0.40
2023-03-19T04:16:29.358Z,0.40
2023-03-19T04:19:33.211Z,0.40
2023-03-19T04:22:36.673Z,0.40
2023-03-19T04:25:41.478Z,0.60
2023-03-19T04:28:46.287Z,0.80
2023-03-19T04:31:49.474Z,0.80
2023-03-19T04:34:52.836Z,1.10
2023-03-19T04:37:56.065Z,1.30
2023-03-19T04:40:59.900Z,1.50
2023-03-19T04:44:04.578Z,2.00
2023-03-19T04:47:08.275Z,2.00
2023-03-19T04:50:24.971Z,2.10
2023-03-19T04:53:29.669Z,2.20
2023-03-19T04:56:33.117Z,2.20
2023-03-19T04:59:37.833Z,2.30
2023-03-19T05:02:42.828Z,2.50
2023-03-19T05:05:46.492Z,2.70
2023-03-19T05:08:49.919Z,2.80
2023-03-19T05:11:55.032Z,2.90
2023-03-19T05:15:00.746Z,3.00
2023-03-19T05:18:11.279Z,3.00
2023-03-19T05:21:17.026Z,3.20
2023-03-19T05:24:21.203Z,3.20
2023-03-19T05:27:24.938Z,3.30
2023-03-19T05:30:49.757Z,3.40
2023-03-19T05:34:18.953Z,3.50
2023-03-19T05:37:22.531Z,3.50
2023-03-19T05:40:33.852Z,3.70
2023-03-19T05:43:45.256Z,3.80
2023-03-19T05:46:59.424Z,4.10
2023-03-19T05:50:07.140Z,4.10
2023-03-19T05:53:10.689Z,4.20
2023-03-19T05:56:16.982Z,4.20
2023-03-19T05:59:40.370Z,4.20
2023-03-19T06:03:03.746Z,4.30
2023-03-19T06:06:15.272Z,4.30
2023-03-19T06:09:21.543Z,4.40
2023-03-19T06:12:31.147Z,4.40
2023-03-19T06:15:52.665Z,4.40
2023-03-19T06:19:01.561Z,4.50
2023-03-19T06:22:04.863Z,4.40
2023-03-19T06:25:09.352Z,4.40
2023-03-19T06:28:14.445Z,4.50
2023-03-19T06:31:20.748Z,4.40
2023-03-19T06:34:37.778Z,4.50
2023-03-19T06:37:41.702Z,4.70
2023-03-19T06:40:44.920Z,4.90
2023-03-19T06:43:48.370Z,5.10
2023-03-19T06:46:51.613Z,5.40
2023-03-19T06:49:56.518Z,5.60
2023-03-19T06:53:02.439Z,5.80
2023-03-19T06:56:06.056Z,5.90
2023-03-19T06:59:13.031Z,6.20
2023-03-19T07:02:17.411Z,6.40
2023-03-19T07:05:22.386Z,6.70
2023-03-19T07:08:29.560Z,6.90
2023-03-19T07:11:35.819Z,7.20
2023-03-19T07:14:39.405Z,7.20
2023-03-19T07:17:43.906Z,7.20
2023-03-19T07:20:48.831Z,7.10
2023-03-19T07:23:52.241Z,7.10
2023-03-19T07:26:55.569Z,7.30
2023-03-19T07:29:58.809Z,7.20
2023-03-19T07:33:02.326Z,7.30
2023-03-19T07:36:08.221Z,7.30
2023-03-19T07:39:11.433Z,7.20
2023-03-19T07:42:15.348Z,7.20
2023-03-19T07:45:19.374Z,7.30
2023-03-19T07:48:22.601Z,7.50
2023-03-19T07:51:27.634Z,7.60
2023-03-19T07:54:31.310Z,7.70
2023-03-19T07:57:34.616Z,7.70
2023-03-19T08:00:38.205Z,7.80
2023-03-19T08:03:41.582Z,7.90
2023-03-19T08:06:46.462Z,8.00
2023-03-19T08:09:49.925Z,8.20
2023-03-19T08:12:53.364Z,8.30
2023-03-19T08:15:56.709Z,8.30
2023-03-19T08:19:00.211Z,8.20
2023-03-19T08:22:04.972Z,8.10
2023-03-19T08:25:09.407Z,8.20
2023-03-19T08:28:13.114Z,8.40
2023-03-19T08:31:16.618Z,8.50
2023-03-19T08:34:20.080Z,8.70
2023-03-19T08:37:25.142Z,8.70
2023-03-19T08:40:28.647Z,8.70
2023-03-19T08:43:33.335Z,9.00
2023-03-19T08:46:36.993Z,9.20
2023-03-19T08:49:40.966Z,9.30
2023-03-19T08:52:45.855Z,9.30
2023-03-19T08:55:53.958Z,9.50
2023-03-19T08:58:58.061Z,9.80
2023-03-19T09:02:01.665Z,10.00
2023-03-19T09:05:05.569Z,10.20
2023-03-19T09:08:10.664Z,10.30
2023-03-19T09:11:16.849Z,10.30
2023-03-19T09:14:20.908Z,10.50
2023-03-19T09:17:24.177Z,10.60
2023-03-19T09:20:27.599Z,10.60
2023-03-19T09:23:32.238Z,10.60
2023-03-19T09:26:36.203Z,10.80
2023-03-19T09:29:39.440Z,11.20
2023-03-19T09:32:42.978Z,11.10
2023-03-19T09:36:00.622Z,11.30
2023-03-19T09:39:14.027Z,11.70
2023-03-19T09:42:34.470Z,12.00
2023-03-19T09:45:40.896Z,12.20
2023-03-19T09:48:50.854Z,12.30
2023-03-19T09:51:57.195Z,12.40
2023-03-19T09:55:07.035Z,12.60
2023-03-19T09:58:16.694Z,12.60
2023-03-19T10:01:26.869Z,12.60
2023-03-19T10:04:43.716Z,12.70
2023-03-19T10:08:19.521Z,12.90
2023-03-19T10:11:41.369Z,13.20
2023-03-19T10:15:00.670Z,13.40
2023-03-19T10:18:08.079Z,13.40
2023-03-19T10:21:14.678Z,13.60
2023-03-19T10:24:34.950Z,13.80
2023-03-19T10:27:39.958Z,13.90
2023-03-19T10:30:45.499Z,13.90
2023-03-19T10:33:56.017Z,13.60
2023-03-19T10:37:03.988Z,13.60
2023-03-19T10:40:18.805Z,14.00
2023-03-19T10:43:26.764Z,14.00
2023-03-19T10:46:37.507Z,14.10
2023-03-19T10:49:40.836Z,13.90
2023-03-19T10:52:44.767Z,13.80
2023-03-19T10:55:52.059Z,14.10
2023-03-19T10:59:01.900Z,14.20
2023-03-19T11:02:17.503Z,14.50
2023-03-19T11:05:27.416Z,14.70
2023-03-19T11:08:35.884Z,15.10
2023-03-19T11:11:45.061Z,14.60
2023-03-19T11:14:52.443Z,15.00
2023-03-19T11:17:59.306Z,15.30
2023-03-19T11:21:08.402Z,15.90
2023-03-19T11:24:13.942Z,16.50
2023-03-19T11:27:17.302Z,16.70
2023-03-19T11:30:22.844Z,16.50
2023-03-19T11:33:51.469Z,16.10
2023-03-19T11:37:05.048Z,16.00
2023-03-19T11:40:15.251Z,15.90
2023-03-19T11:43:41.927Z,16.20
2023-03-19T11:46:55.613Z,15.80
2023-03-19T11:50:18.626Z,16.10
2023-03-19T11:53:27.185Z,16.10
2023-03-19T11:56:36.352Z,16.00
2023-03-19T12:00:10.191Z,16.10
2023-03-19T12:03:49.010Z,16.80
2023-03-19T12:07:04.115Z,16.90
2023-03-19T12:10:27.029Z,17.40
2023-03-19T12:13:44.631Z,18.00
2023-03-19T12:16:58.745Z,19.20
2023-03-19T12:20:20.253Z,18.80
2023-03-19T12:23:37.684Z,18.90
2023-03-19T12:26:51.130Z,19.10
2023-03-19T12:30:02.131Z,18.50
2023-03-19T12:33:23.369Z,19.30
2023-03-19T12:36:30.738Z,20.20
2023-03-19T12:39:40.037Z,20.80
2023-03-19T12:42:44.147Z,21.60
2023-03-19T12:45:50.806Z,21.90
2023-03-19T12:48:58.802Z,21.20
2023-03-19T12:52:15.196Z,19.40
2023-03-19T12:55:30.923Z,18.70
2023-03-19T12:58:53.960Z,18.30
2023-03-19T13:02:04.567Z,16.30
2023-03-19T13:05:22.978Z,18.60
2023-03-19T13:08:34.199Z,19.50
2023-03-19T13:11:45.402Z,18.80
2023-03-19T13:14:54.668Z,17.70
2023-03-19T13:18:17.343Z,17.50
2023-03-19T13:21:24.728Z,17.20
2023-03-19T13:24:30.901Z,17.10
2023-03-19T13:27:37.250Z,16.90
2023-03-19T13:30:42.435Z,16.70
2023-03-19T13:33:55.455Z,16.80
2023-03-19T13:37:05.716Z,16.80
2023-03-19T13:40:40.303Z,15.90
2023-03-19T13:43:54.497Z,15.20
2023-03-19T13:46:57.867Z,15.30
2023-03-19T13:50:38.809Z,15.30
2023-03-19T13:53:53.120Z,15.80
2023-03-19T13:57:23.292Z,15.80
2023-03-19T14:00:42.728Z,15.90
2023-03-19T14:04:05.766Z,16.00
2023-03-19T14:07:18.426Z,16.70
2023-03-19T14:10:27.854Z,16.40
2023-03-19T14:13:37.486Z,16.40
2023-03-19T14:16:46.373Z,16.00
2023-03-19T14:19:52.507Z,15.70
2023-03-19T14:23:04.331Z,15.70
2023-03-19T14:26:14.219Z,15.90
2023-03-19T14:29:19.471Z,16.00
2023-03-19T14:32:29.629Z,16.10
2023-03-19T14:35:40.937Z,16.20
2023-03-19T14:38:50.712Z,15.80
2023-03-19T14:42:01.752Z,16.00
2023-03-19T14:45:30.197Z,16.10
2023-03-19T14:49:08.405Z,15.80
2023-03-19T14:52:17.682Z,15.50
2023-03-19T14:55:22.072Z,15.50
2023-03-19T14:58:25.619Z,15.70
2023-03-19T15:01:29.436Z,15.40
2023-03-19T15:04:36.008Z,15.60
2023-03-19T15:07:45.918Z,15.90
2023-03-19T15:10:59.524Z,16.10
2023-03-19T15:14:19.037Z,15.90
2023-03-19T15:17:26.287Z,15.90
2023-03-19T15:20:34.489Z,15.90
2023-03-19T15:23:41.006Z,15.90
2023-03-19T15:26:47.083Z,16.00
2023-03-19T15:29:51.752Z,15.70
2023-03-19T15:33:09.422Z,15.60
2023-03-19T15:36:18.625Z,15.80
2023-03-19T15:39:25.369Z,15.20
2023-03-19T15:42:30.500Z,15.20
2023-03-19T15:45:34.915Z,14.90
2023-03-19T15:48:43.987Z,14.60
2023-03-19T15:51:51.603Z,14.70
2023-03-19T15:54:58.122Z,14.50
2023-03-19T15:58:07.030Z,14.40
2023-03-19T16:01:13.491Z,14.00
2023-03-19T16:04:23.205Z,13.50
2023-03-19T16:07:33.920Z,13.10
2023-03-19T16:10:43.394Z,12.90
2023-03-19T16:13:56.987Z,12.40
2023-03-19T16:17:11.565Z,12.20
2023-03-19T16:20:15.784Z,12.00
2023-03-19T16:23:20.079Z,11.70
2023-03-19T16:26:27.664Z,11.20
2023-03-19T16:29:35.279Z,10.90
2023-03-19T16:32:39.034Z,10.60
2023-03-19T16:35:44.655Z,10.40
2023-03-19T16:38:56.424Z,10.30
2023-03-19T16:42:26.992Z,10.00
2023-03-19T16:45:32.085Z,9.80
2023-03-19T16:48:37.094Z,9.60
2023-03-19T16:51:42.057Z,9.30
2023-03-19T16:54:46.812Z,9.10
2023-03-19T16:57:57.918Z,8.90
2023-03-19T17:01:03.901Z,8.80
2023-03-19T17:04:14.010Z,8.70
2023-03-19T17:07:17.608Z,8.60
2023-03-19T17:10:23.816Z,8.40
2023-03-19T17:13:30.918Z,8.20
2023-03-19T17:16:34.896Z,8.10
2023-03-19T17:19:38.392Z,7.90
2023-03-19T17:22:45.217Z,7.80
2023-03-19T17:25:48.589Z,7.70
2023-03-19T17:28:57.447Z,7.70
2023-03-19T17:32:06.895Z,7.60
2023-03-19T17:35:16.593Z,7.60
2023-03-19T17:38:21.517Z,7.40
2023-03-19T17:41:24.900Z,7.20
2023-03-19T17:44:29.735Z,7.10
2023-03-19T17:47:35.358Z,7.10
2023-03-19T17:50:38.715Z,7.10
2023-03-19T17:53:46.298Z,7.00
2023-03-19T17:56:50.949Z,6.90
2023-03-19T17:59:56.533Z,6.80
2023-03-19T18:02:59.964Z,6.80
2023-03-19T18:06:07.109Z,6.90
2023-03-19T18:09:19.077Z,6.80
2023-03-19T18:12:22.407Z,6.80
2023-03-19T18:15:27.374Z,6.70
2023-03-19T18:18:31.092Z,6.60
2023-03-19T18:21:34.587Z,6.60
2023-03-19T18:24:39.668Z,6.60
2023-03-19T18:27:45.111Z,6.50
2023-03-19T18:30:53.021Z,6.40
2023-03-19T18:34:00.777Z,6.50
2023-03-19T18:37:04.401Z,6.50
2023-03-19T18:40:11.104Z,6.30
2023-03-19T18:43:16.347Z,6.20
2023-03-19T18:46:24.553Z,6.20
2023-03-19T18:49:29.675Z,6.10
2023-03-19T18:52:33.076Z,6.00
2023-03-19T18:55:36.584Z,5.90
2023-03-19T18:58:44.428Z,5.90
2023-03-19T19:01:49.582Z,5.90
2023-03-19T19:04:52.843Z,5.70
2023-03-19T19:07:58.002Z,5.70
2023-03-19T19:11:04.302Z,5.70
2023-03-19T19:14:14.300Z,5.70
2023-03-19T19:17:22.323Z,5.70
2023-03-19T19:20:27.833Z,5.60
2023-03-19T19:23:31.611Z,5.50
2023-03-19T19:26:37.305Z,5.50
2023-03-19T19:29:42.449Z,5.40
2023-03-19T19:32:48.364Z,5.30
2023-03-19T19:35:53.119Z,5.20
2023-03-19T19:38:58.076Z,5.10
2023-03-19T19:42:02.171Z,5.00
2023-03-19T19:45:06.758Z,4.90
2023-03-19T19:48:16.202Z,4.90
2023-03-19T19:51:21.654Z,4.80
2023-03-19T19:54:25.684Z,4.80
2023-03-19T19:57:29.171Z,4.90
2023-03-19T20:00:33.466Z,4.80
2023-03-19T20:03:39.840Z,4.70
2023-03-19T20:06:43.458Z,4.60
2023-03-19T20:09:49.227Z,4.50
2023-03-19T20:12:55.856Z,4.60
2023-03-19T20:16:01.092Z,4.50
2023-03-19T20:19:06.988Z,4.60
2023-03-19T20:22:10.588Z,4.60
2023-03-19T20:25:15.693Z,4.60
2023-03-19T20:28:23.007Z,4.60
2023-03-19T20:31:29.638Z,4.60
2023-03-19T20:34:39.472Z,4.60
2023-03-19T20:37:43.683Z,4.60
2023-03-19T20:40:54.022Z,4.60
2023-03-19T20:44:00.698Z,4.50
2023-03-19T20:47:07.109Z,4.40
2023-03-19T20:50:24.130Z,4.40
2023-03-19T20:53:28.348Z,4.30
2023-03-19T20:56:35.095Z,4.20
2023-03-19T20:59:38.540Z,4.20
2023-03-19T21:02:46.659Z,4.20
2023-03-19T21:05:53.421Z,4.20
2023-03-19T21:09:00.356Z,4.10
2023-03-19T21:12:03.705Z,4.10
2023-03-19T21:15:14.048Z,4.10
2023-03-19T21:18:18.972Z,4.10
2023-03-19T21:21:31.584Z,4.00
2023-03-19T21:24:34.770Z,4.00
2023-03-19T21:27:39.937Z,4.00
2023-03-19T21:30:44.964Z,4.00
2023-03-19T21:33:49.905Z,3.90
2023-03-19T21:36:54.553Z,3.90
2023-03-19T21:39:57.831Z,3.90
2023-03-19T21:43:04.078Z,3.90
2023-03-19T21:46:23.309Z,3.80
2023-03-19T21:49:27.382Z,3.80
2023-03-19T21:52:42.746Z,3.80
2023-03-19T21:55:55.041Z,3.70
2023-03-19T21:58:58.430Z,3.70
2023-03-19T22:02:04.202Z,3.60
2023-03-19T22:05:20.010Z,3.60
2023-03-19T22:08:26.157Z,3.60
2023-03-19T22:11:31.518Z,3.50
2023-03-19T22:14:35.486Z,3.50
2023-03-19T22:17:39.238Z,3.50
2023-03-19T22:20:43.741Z,3.60
2023-03-19T22:23:48.697Z,3.70
2023-03-19T22:26:57.428Z,3.60
2023-03-19T22:30:02.917Z,3.70
2023-03-19T22:33:14.614Z,4.30
2023-03-19T22:36:18.585Z,4.10
2023-03-19T22:39:26.167Z,4.00
2023-03-19T22:42:29.447Z,3.80
2023-03-19T22:45:34.399Z,3.70
2023-03-19T22:48:38.606Z,3.60
2023-03-19T22:51:42.005Z,3.50
2023-03-19T22:54:47.846Z,3.50
2023-03-19T22:57:51.816Z,3.30
2023-03-19T23:00:56.127Z,3.20
2023-03-19T23:04:00.313Z,3.10
2023-03-19T23:07:03.555Z,3.20
2023-03-19T23:10:16.594Z,3.10
2023-03-19T23:13:20.491Z,3.10
2023-03-19T23:16:25.750Z,3.10
2023-03-19T23:19:31.100Z,3.00
2023-03-19T23:22:34.296Z,3.00
2023-03-19T23:25:38.935Z,3.00
2023-03-19T23:28:42.707Z,3.00
2023-03-19T23:31:46.226Z,3.00
2023-03-19T23:34:59.532Z,3.00
2023-03-19T23:38:04.092Z,3.00
2023-03-19T23:41:08.941Z,3.00
2023-03-19T23:44:14.433Z,2.90
2023-03-19T23:47:17.747Z,2.90
2023-03-19T23:50:21.020Z,2.80
2023-03-19T23:53:26.129Z,2.90
2023-03-19T23:57:10.203Z,3.00
